Time;durP1;ratioP1;P1;durP2;ratioP2;P2;SDS_P1;SDS_P2;PMS_P1;PMS_P2;Temp;Humidity;BMP_temperature;BMP_pressure;BME280_temperature;BME280_humidity;BME280_pressure;Samples;Min_cycle;Max_cycle;Signal;HPM_P1;HPM_P2
2023/03/07 00:02:12;;;;;;;31.85;10.88;;;;;;;-4.79;71.59;98235.00;4975265;28;20065;-75
2023/03/07 00:04:38;;;;;;;27.55;11.60;;;;;;;-4.84;71.30;98239.53;4975740;28;20077;-75
2023/03/07 00:07:04;;;;;;;25.85;11.32;;;;;;;-4.89;71.37;98229.28;4957216;28;20083;-74
2023/03/07 00:09:29;;;;;;;23.02;10.98;;;;;;;-4.92;71.73;98237.19;4975253;28;20050;-74
2023/03/07 00:11:55;;;;;;;24.63;12.25;;;;;;;-4.94;71.51;98225.13;4973961;28;20039;-75
2023/03/07 00:14:21;;;;;;;19.92;11.18;;;;;;;-4.99;71.46;98227.06;4973962;28;20134;-75
2023/03/07 00:16:50;;;;;;;28.38;12.23;;;;;;;-5.01;71.40;98234.06;4975009;28;20046;-75
2023/03/07 00:19:17;;;;;;;20.42;12.35;;;;;;;-5.05;71.44;98237.69;4957740;28;20074;-74
2023/03/07 00:21:44;;;;;;;17.83;11.82;;;;;;;-5.10;71.45;98229.19;4974908;28;20526;-75
2023/03/07 00:24:10;;;;;;;22.27;12.85;;;;;;;-5.17;71.63;98213.75;4957499;28;20074;-75
2023/03/07 00:26:38;;;;;;;19.85;11.88;;;;;;;-5.14;71.62;98220.63;4957858;28;20066;-74
2023/03/07 00:29:06;;;;;;;19.75;13.35;;;;;;;-5.16;71.84;98227.63;4973715;28;20138;-75
2023/03/07 00:31:31;;;;;;;19.92;10.52;;;;;;;-5.16;72.01;98215.44;4957800;28;20059;-76
2023/03/07 00:33:57;;;;;;;22.17;13.32;;;;;;;-5.13;72.27;98215.34;4941412;28;20042;-76
2023/03/07 00:36:23;;;;;;;19.02;12.00;;;;;;;-5.09;72.11;98212.63;4973641;28;20049;-75
2023/03/07 00:38:50;;;;;;;24.17;12.63;;;;;;;-5.07;72.22;98197.81;4957537;28;20560;-75
2023/03/07 00:41:21;;;;;;;21.48;12.70;;;;;;;-5.09;71.92;98181.38;4974610;28;20509;-75
2023/03/07 00:43:47;;;;;;;19.00;12.07;;;;;;;-5.10;72.23;98177.06;4974642;28;20537;-75
2023/03/07 00:46:15;;;;;;;24.75;11.48;;;;;;;-5.12;72.00;98175.34;4973361;28;20490;-76
2023/03/07 00:48:41;;;;;;;29.05;13.65;;;;;;;-5.08;71.86;98170.03;4957398;28;20133;-76
2023/03/07 00:51:09;;;;;;;19.67;12.15;;;;;;;-4.99;72.26;98174.94;4973387;28;20133;-75
2023/03/07 00:53:35;;;;;;;19.38;11.82;;;;;;;-4.98;72.01;98176.63;4973411;28;20058;-75
2023/03/07 00:56:06;;;;;;;22.45;14.07;;;;;;;-4.93;71.83;98172.97;4957442;28;20045;-76
2023/03/07 00:58:34;;;;;;;21.33;12.25;;;;;;;-4.98;71.73;98161.84;4941409;28;20051;-75
2023/03/07 01:01:01;;;;;;;18.45;12.90;;;;;;;-4.96;71.80;98160.03;4989604;28;20490;-75
2023/03/07 01:03:28;;;;;;;24.15;12.60;;;;;;;-4.91;71.63;98162.47;4956881;28;20134;-75
2023/03/07 01:05:54;;;;;;;28.70;14.02;;;;;;;-4.84;71.63;98168.31;4973122;28;20069;-75
2023/03/07 01:08:21;;;;;;;24.15;14.30;;;;;;;-4.81;71.29;98169.06;4973143;28;20085;-75
2023/03/07 01:10:48;;;;;;;23.92;13.88;;;;;;;-4.81;71.15;98166.44;4941026;28;20051;-76
2023/03/07 01:13:16;;;;;;;26.88;14.10;;;;;;;-4.81;70.84;98166.44;4956845;28;20133;-75
2023/03/07 01:15:42;;;;;;;23.95;14.80;;;;;;;-4.81;70.66;98162.97;4972883;28;20045;-75
2023/03/07 01:18:09;;;;;;;23.67;14.00;;;;;;;-4.88;70.89;98144.13;4973101;28;20058;-75
2023/03/07 01:20:37;;;;;;;32.60;14.75;;;;;;;-4.84;70.56;98157.88;4940906;28;20486;-75
2023/03/07 01:23:04;;;;;;;24.42;14.63;;;;;;;-4.87;70.48;98153.63;4974128;28;20133;-75
2023/03/07 01:25:35;;;;;;;22.92;16.08;;;;;;;-4.90;70.36;98156.34;4956729;28;20133;-76
2023/03/07 01:28:02;;;;;;;24.77;16.33;;;;;;;-4.96;69.89;98148.75;4973309;28;20445;-76
2023/03/07 01:30:28;;;;;;;24.67;14.88;;;;;;;-5.03;69.92;98155.09;4972947;28;20090;-75
2023/03/07 01:32:56;;;;;;;37.85;16.63;;;;;;;-5.17;69.61;98156.44;4972813;28;20053;-76
2023/03/07 01:35:24;;;;;;;35.88;17.23;;;;;;;-5.23;69.81;98151.47;4956787;28;20043;-76
2023/03/07 01:37:51;;;;;;;29.90;16.42;;;;;;;-5.33;69.75;98157.91;4956470;28;20057;-75
2023/03/07 01:40:18;;;;;;;27.33;17.10;;;;;;;-5.41;69.32;98162.53;4972700;28;20198;-77
2023/03/07 01:42:44;;;;;;;30.40;16.63;;;;;;;-5.44;69.76;98163.47;4941121;28;20038;-76
2023/03/07 01:45:13;;;;;;;33.03;18.40;;;;;;;-5.48;69.48;98161.03;4940710;28;20395;-76
2023/03/07 01:47:44;;;;;;;32.88;18.55;;;;;;;-5.58;69.45;98144.03;4956877;28;20070;-75
2023/03/07 01:50:16;;;;;;;32.40;19.17;;;;;;;-5.59;69.21;98137.97;4956535;28;20050;-77
2023/03/07 01:52:46;;;;;;;42.63;25.90;;;;;;;-5.61;69.09;98139.75;4940707;28;20047;-76
2023/03/07 01:55:20;;;;;;;29.90;17.83;;;;;;;-5.68;69.14;98131.34;4972862;28;20119;-76
2023/03/07 01:57:50;;;;;;;35.00;20.73;;;;;;;-5.73;69.10;98135.81;4972868;28;20039;-76
2023/03/07 02:00:25;;;;;;;31.48;17.30;;;;;;;-5.81;69.02;98130.03;4973040;28;20552;-76
2023/03/07 02:03:03;;;;;;;35.35;20.10;;;;;;;-5.83;68.89;98137.03;4956333;28;20066;-75
2023/03/07 02:05:34;;;;;;;40.20;20.93;;;;;;;-5.87;68.98;98141.50;4972874;28;20050;-76
2023/03/07 02:08:01;;;;;;;33.80;20.02;;;;;;;-5.88;69.02;98141.53;4956647;28;20098;-77
2023/03/07 02:10:32;;;;;;;40.28;22.25;;;;;;;-5.92;68.95;98146.00;4972642;28;20070;-77
2023/03/07 02:12:58;;;;;;;31.67;17.17;;;;;;;-5.99;68.42;98141.09;4972336;28;20047;-75
2023/03/07 02:15:23;;;;;;;41.67;19.63;;;;;;;-6.24;68.12;98136.69;4958289;28;20127;-75
2023/03/07 02:17:50;;;;;;;37.65;20.45;;;;;;;-6.31;68.45;98142.13;4971328;28;20474;-77
2023/03/07 02:20:35;;;;;;;39.10;19.58;;;;;;;-6.42;68.55;98140.72;4959270;28;20417;-76
2023/03/07 02:23:03;;;;;;;44.38;20.77;;;;;;;-6.59;68.64;98148.16;4959578;28;20046;-76
2023/03/07 02:26:04;;;;;;;40.95;19.05;;;;;;;-6.62;68.76;98158.66;4991739;28;20054;-75
2023/03/07 02:28:30;;;;;;;48.38;20.30;;;;;;;-6.78;68.50;98158.25;4991658;28;20050;-75
2023/03/07 02:31:05;;;;;;;53.58;19.35;;;;;;;-6.79;68.86;98146.16;4977719;28;20042;-75
2023/03/07 02:33:33;;;;;;;54.78;21.92;;;;;;;-6.85;68.99;98135.94;4979073;28;20058;-76
2023/03/07 02:36:11;;;;;;;51.53;21.83;;;;;;;-6.89;69.14;98144.72;4979435;28;20129;-75
2023/03/07 02:38:46;;;;;;;46.38;20.65;;;;;;;-6.84;69.33;98155.84;4963991;28;20140;-76
2023/03/07 02:41:14;;;;;;;46.70;21.38;;;;;;;-6.83;69.33;98147.16;4962034;28;20050;-76
2023/03/07 02:43:40;;;;;;;51.03;22.08;;;;;;;-6.73;69.31;98161.59;4978423;28;20413;-75
2023/03/07 02:46:07;;;;;;;47.25;21.10;;;;;;;-6.68;69.32;98149.31;4978577;28;20046;-76
2023/03/07 02:48:32;;;;;;;45.08;20.45;;;;;;;-6.64;69.52;98145.72;4994660;28;20493;-76
2023/03/07 02:50:59;;;;;;;46.15;21.75;;;;;;;-6.52;69.45;98154.88;4978553;28;20052;-76
2023/03/07 02:53:25;;;;;;;48.35;20.92;;;;;;;-6.45;69.59;98152.94;4990338;28;20039;-76
2023/03/07 02:55:51;;;;;;;44.28;18.90;;;;;;;-6.27;70.25;98154.13;4976523;28;20049;-76
2023/03/07 02:58:17;;;;;;;41.20;15.90;;;;;;;-6.07;70.69;98153.50;4975241;28;20070;-75
2023/03/07 03:00:43;;;;;;;42.05;18.50;;;;;;;-5.89;71.06;98150.25;4975214;28;20097;-76
2023/03/07 03:03:10;;;;;;;52.63;16.80;;;;;;;-5.80;71.37;98134.31;4975136;28;20485;-75
2023/03/07 03:05:36;;;;;;;59.97;15.15;;;;;;;-5.57;71.59;98143.09;4975192;28;20047;-76
2023/03/07 03:08:02;;;;;;;50.75;17.38;;;;;;;-5.43;71.96;98149.53;4975107;28;20070;-76
2023/03/07 03:10:29;;;;;;;45.63;18.13;;;;;;;-5.38;71.79;98146.78;4974887;28;20043;-75
2023/03/07 03:12:56;;;;;;;49.30;16.85;;;;;;;-5.38;71.84;98152.84;4975077;28;20050;-76
2023/03/07 03:15:22;;;;;;;42.40;13.93;;;;;;;-5.51;72.51;98153.31;4976056;28;20046;-76
2023/03/07 03:17:48;;;;;;;60.85;9.82;;;;;;;-5.47;72.29;98139.28;4974754;28;20092;-76
2023/03/07 03:20:15;;;;;;;20.60;9.18;;;;;;;-5.34;72.76;98137.09;4975079;28;20039;-75
2023/03/07 03:22:42;;;;;;;21.90;9.35;;;;;;;-5.30;73.35;98128.25;4974733;28;20134;-76
2023/03/07 03:25:11;;;;;;;21.52;8.35;;;;;;;-5.08;73.26;98139.63;4964509;28;20038;-78
2023/03/07 03:27:39;;;;;;;19.35;7.93;;;;;;;-4.93;73.19;98139.09;5010598;28;20046;-74
2023/03/07 03:30:09;;;;;;;18.13;8.32;;;;;;;-4.87;72.74;98127.56;4977745;28;20046;-76
2023/03/07 03:32:39;;;;;;;18.48;7.03;;;;;;;-4.90;73.39;98158.94;4993917;28;20184;-78
2023/03/07 03:35:06;;;;;;;15.52;6.15;;;;;;;-4.94;73.17;98131.31;4978471;28;20042;-76
2023/03/07 03:37:33;;;;;;;14.75;6.03;;;;;;;-4.97;73.31;98139.22;4978005;28;20188;-73
2023/03/07 03:39:59;;;;;;;16.98;6.10;;;;;;;-4.95;73.05;98140.03;4977409;28;20046;-76
2023/03/07 03:42:25;;;;;;;11.90;6.38;;;;;;;-4.86;72.93;98128.41;5009688;28;20539;-80
2023/03/07 03:44:51;;;;;;;9.65;5.30;;;;;;;-4.70;73.18;98135.59;4977703;28;20070;-73
2023/03/07 03:47:17;;;;;;;27.88;7.63;;;;;;;-4.74;72.92;98147.06;4995106;28;20494;-78
2023/03/07 03:49:43;;;;;;;12.57;6.18;;;;;;;-4.60;72.93;98130.03;4977599;28;20065;-75
2023/03/07 03:52:09;;;;;;;11.95;6.07;;;;;;;-4.47;72.62;98141.69;5010213;28;20212;-76
2023/03/07 03:54:35;;;;;;;9.50;5.03;;;;;;;-4.34;72.19;98116.81;4994797;28;20538;-75
2023/03/07 03:57:01;;;;;;;15.77;6.57;;;;;;;-4.28;72.14;98129.63;4993549;28;20045;-75
2023/03/07 03:59:29;;;;;;;13.80;5.80;;;;;;;-4.20;72.12;98130.16;4993220;28;20049;-76
2023/03/07 04:01:55;;;;;;;16.70;7.90;;;;;;;-4.17;71.67;98121.38;4993804;28;20094;-75
2023/03/07 04:04:22;;;;;;;18.45;5.95;;;;;;;-4.04;71.67;98126.94;4977308;28;20532;-76
2023/03/07 04:06:47;;;;;;;17.75;6.82;;;;;;;-3.92;71.15;98118.59;4993205;28;20046;-78
2023/03/07 04:09:14;;;;;;;13.43;6.68;;;;;;;-3.76;71.54;98148.41;4976896;28;20461;-76
2023/03/07 04:11:43;;;;;;;13.02;6.50;;;;;;;-3.51;71.36;98145.59;4993314;28;20042;-76
2023/03/07 04:14:09;;;;;;;11.85;6.15;;;;;;;-3.36;70.36;98159.78;4958454;28;20065;-76
2023/03/07 04:16:35;;;;;;;19.10;8.00;;;;;;;-3.56;68.86;98170.22;4973721;28;20045;-79
2023/03/07 04:19:01;;;;;;;29.90;10.05;;;;;;;-3.62;68.45;98178.31;4957731;28;20038;-76
2023/03/07 04:21:27;;;;;;;12.00;6.53;;;;;;;-3.82;67.46;98187.81;4973723;28;20510;-75
2023/03/07 04:24:15;;;;;;;14.38;5.78;;;;;;;-3.92;66.87;98178.63;4973432;28;20057;-77
2023/03/07 04:26:43;;;;;;;17.00;6.63;;;;;;;-4.16;66.73;98178.72;4974105;28;20074;-75
2023/03/07 04:29:09;;;;;;;18.63;6.93;;;;;;;-4.13;66.40;98192.56;4975670;28;20509;-73
2023/03/07 04:31:52;;;;;;;16.92;7.45;;;;;;;-4.24;65.75;98196.44;4972845;28;20508;-76
2023/03/07 04:34:19;;;;;;;21.58;8.07;;;;;;;-4.41;66.31;98194.47;4962439;28;20053;-76
2023/03/07 04:36:44;;;;;;;23.52;10.38;;;;;;;-4.39;66.75;98191.81;4954397;29;20047;-75
2023/03/07 04:39:12;;;;;;;28.02;11.10;;;;;;;-4.30;66.79;98186.22;4938193;29;20065;-77
2023/03/07 04:41:38;;;;;;;17.63;8.18;;;;;;;-4.15;66.64;98206.50;4954104;29;20134;-75
2023/03/07 04:44:19;;;;;;;11.10;6.07;;;;;;;-3.89;66.54;98204.63;4923947;29;20194;-75
2023/03/07 04:46:45;;;;;;;18.35;7.18;;;;;;;-3.44;65.96;98201.91;4938124;29;20043;-75
2023/03/07 04:49:11;;;;;;;14.48;8.00;;;;;;;-3.17;65.19;98197.25;4922210;29;20043;-76
2023/03/07 04:51:38;;;;;;;16.65;6.80;;;;;;;-2.90;64.96;98191.75;4955159;28;20051;-77
2023/03/07 04:54:04;;;;;;;12.38;6.55;;;;;;;-2.76;64.28;98197.22;4937391;29;20054;-77
2023/03/07 04:56:30;;;;;;;12.90;6.45;;;;;;;-2.59;64.37;98196.47;4938187;29;20047;-76
2023/03/07 04:58:56;;;;;;;12.80;7.25;;;;;;;-2.44;63.80;98202.78;4954230;29;20102;-75
2023/03/07 05:01:22;;;;;;;18.90;6.78;;;;;;;-2.22;64.13;98207.84;4922068;29;20047;-76
2023/03/07 05:03:51;;;;;;;15.30;7.20;;;;;;;-1.97;63.65;98197.94;4944193;28;20066;-89
2023/03/07 05:06:19;;;;;;;;;;;;;;;-1.77;62.10;98198.72;4953002;28;20054;-78
2023/03/07 05:08:48;;;;;;;14.10;6.95;;;;;;;-1.81;61.15;98198.03;4976821;28;20459;-77
2023/03/07 05:11:14;;;;;;;26.30;8.68;;;;;;;-1.69;60.70;98201.84;4976500;28;20409;-76
2023/03/07 05:13:40;;;;;;;19.92;8.30;;;;;;;-1.54;60.70;98203.72;4976309;28;20050;-80
2023/03/07 05:16:07;;;;;;;14.10;7.22;;;;;;;-1.43;60.08;98208.41;4976329;28;20081;-76
2023/03/07 05:18:32;;;;;;;16.58;7.93;;;;;;;-1.29;59.95;98208.56;5008726;28;20072;-75
2023/03/07 05:20:59;;;;;;;15.98;7.53;;;;;;;-1.16;59.33;98210.59;5008290;28;20078;-75
2023/03/07 05:23:26;;;;;;;16.67;7.28;;;;;;;-1.17;59.09;98208.88;4992010;28;20085;-75
2023/03/07 05:25:53;;;;;;;15.70;7.40;;;;;;;-1.19;58.83;98210.75;4992052;28;20532;-76
2023/03/07 05:28:19;;;;;;;20.58;8.05;;;;;;;-1.07;58.98;98215.38;5008660;28;20058;-75
2023/03/07 05:30:46;;;;;;;13.30;6.50;;;;;;;-0.96;58.88;98201.69;4993360;28;20481;-76
2023/03/07 05:33:12;;;;;;;15.85;7.45;;;;;;;-0.80;58.55;98206.06;4975928;28;20501;-75
2023/03/07 05:35:39;;;;;;;14.40;7.07;;;;;;;-0.62;57.90;98206.88;4975859;28;20046;-76
2023/03/07 05:38:06;;;;;;;17.88;6.90;;;;;;;-0.56;57.18;98205.72;4992244;28;20462;-76
2023/03/07 05:40:32;;;;;;;14.52;7.65;;;;;;;-0.50;56.76;98200.97;4988656;28;20489;-76
2023/03/07 05:42:58;;;;;;;17.58;7.88;;;;;;;-0.48;56.69;98203.53;4982768;28;20136;-76
2023/03/07 05:45:24;;;;;;;16.60;7.22;;;;;;;-0.65;56.91;98200.94;4992144;28;20052;-76
2023/03/07 05:47:50;;;;;;;15.07;7.82;;;;;;;-0.73;56.39;98203.97;4991955;28;20050;-75
2023/03/07 05:50:17;;;;;;;12.18;6.85;;;;;;;-0.68;56.69;98196.69;4992262;28;20397;-77
2023/03/07 05:52:44;;;;;;;16.67;6.78;;;;;;;-0.64;57.18;98193.00;4991885;28;20038;-75
2023/03/07 05:55:09;;;;;;;14.02;6.90;;;;;;;-0.36;56.66;98192.38;4993126;28;20081;-75
2023/03/07 05:57:35;;;;;;;16.02;7.32;;;;;;;-0.33;56.33;98194.81;4975776;28;20038;-75
2023/03/07 06:00:04;;;;;;;17.77;7.03;;;;;;;-0.77;56.37;98186.69;4975584;28;20050;-74
2023/03/07 06:02:40;;;;;;;14.60;7.97;;;;;;;-1.18;57.29;98181.81;4993128;28;20061;-74
2023/03/07 06:05:07;;;;;;;13.63;7.32;;;;;;;-1.15;57.56;98191.31;4992834;28;20508;-75
2023/03/07 06:07:32;;;;;;;15.77;8.15;;;;;;;-1.30;57.29;98188.53;4995494;28;20070;-75
2023/03/07 06:09:58;;;;;;;20.98;8.38;;;;;;;-1.27;57.44;98188.38;4994763;28;20078;-76
2023/03/07 06:12:25;;;;;;;16.50;7.68;;;;;;;-1.18;57.21;98192.31;4971000;28;20102;-75
2023/03/07 06:14:50;;;;;;;15.43;7.72;;;;;;;-1.06;56.97;98198.69;4979276;28;20561;-75
2023/03/07 06:17:16;;;;;;;22.95;7.57;;;;;;;-0.99;56.65;98200.06;4941919;28;20075;-74
2023/03/07 06:19:42;;;;;;;15.68;7.78;;;;;;;-0.92;56.38;98204.09;4942076;28;20043;-75
2023/03/07 06:22:08;;;;;;;14.30;8.05;;;;;;;-0.87;55.77;98212.56;4941931;28;20490;-77
2023/03/07 06:24:34;;;;;;;14.13;7.85;;;;;;;-0.56;55.24;98205.72;4957674;28;20086;-77
2023/03/07 06:27:00;;;;;;;15.75;9.30;;;;;;;-0.25;55.01;98216.25;4941652;28;20454;-77
2023/03/07 06:29:26;;;;;;;21.35;10.73;;;;;;;0.16;54.55;98215.75;4941753;28;20051;-78
2023/03/07 06:31:56;;;;;;;28.75;13.73;;;;;;;0.23;53.83;98200.50;4957438;28;20035;-78
2023/03/07 06:34:21;;;;;;;28.77;13.82;;;;;;;0.31;53.30;98202.69;4941825;28;20046;-78
2023/03/07 06:36:47;;;;;;;30.65;13.77;;;;;;;0.13;53.57;98200.16;4941294;28;20054;-78
2023/03/07 06:39:19;;;;;;;31.38;14.27;;;;;;;-0.32;53.33;98204.38;4957441;28;20514;-75
2023/03/07 06:41:48;;;;;;;43.80;17.10;;;;;;;-0.37;54.67;98195.09;4941158;28;20055;-79
2023/03/07 06:44:16;;;;;;;45.00;18.92;;;;;;;-0.26;54.75;98208.47;4957473;28;20533;-77
2023/03/07 06:46:43;;;;;;;38.75;17.33;;;;;;;-0.20;54.19;98208.13;4959492;28;20049;-77
2023/03/07 06:49:12;;;;;;;24.40;11.85;;;;;;;-0.16;54.30;98219.31;4961700;28;20058;-75
2023/03/07 06:51:39;;;;;;;18.75;9.60;;;;;;;-0.23;54.44;98218.78;4959098;28;20046;-76
2023/03/07 06:54:06;;;;;;;22.67;9.23;;;;;;;-0.61;54.78;98219.06;4941622;28;20050;-76
2023/03/07 06:56:34;;;;;;;13.77;6.68;;;;;;;-0.45;55.29;98231.38;4951868;28;20128;-76
2023/03/07 06:59:00;;;;;;;11.75;7.40;;;;;;;-0.11;55.38;98227.81;4941482;28;20401;-76
2023/03/07 07:01:26;;;;;;;10.55;6.13;;;;;;;0.14;54.33;98232.53;4940967;28;20047;-77
2023/03/07 07:03:56;;;;;;;10.75;6.45;;;;;;;0.41;53.77;98236.25;4957224;28;20086;-77
2023/03/07 07:06:22;;;;;;;11.55;6.60;;;;;;;0.61;53.61;98232.50;4957371;28;20565;-75
2023/03/07 07:08:52;;;;;;;12.10;6.03;;;;;;;0.38;52.96;98227.72;4957219;28;20086;-77
2023/03/07 07:11:18;;;;;;;;;;;;;;;0.07;52.96;98237.28;4941556;28;20125;-77
2023/03/07 07:13:44;;;;;;;15.68;6.10;;;;;;;0.05;53.69;98228.66;4972956;28;20021;-77
2023/03/07 07:16:12;;;;;;;14.63;5.97;;;;;;;0.39;53.48;98234.66;4957122;28;20046;-79
2023/03/07 07:18:38;;;;;;;11.85;6.65;;;;;;;0.52;53.55;98227.75;4957053;28;20097;-78
2023/03/07 07:21:07;;;;;;;12.52;6.72;;;;;;;0.86;53.37;98233.69;4956902;28;20593;-78
2023/03/07 07:23:33;;;;;;;8.30;5.18;;;;;;;0.97;52.76;98229.50;4956913;28;20045;-78
2023/03/07 07:26:00;;;;;;;10.85;6.18;;;;;;;1.14;52.87;98236.41;4941777;28;20561;-77
2023/03/07 07:28:26;;;;;;;9.63;5.68;;;;;;;1.27;52.55;98235.66;4967358;28;20065;-80
2023/03/07 07:30:53;;;;;;;14.18;6.35;;;;;;;1.47;52.39;98243.22;4976004;28;20169;-76
2023/03/07 07:33:19;;;;;;;17.85;6.15;;;;;;;1.50;51.05;98242.19;4959685;28;20505;-76
2023/03/07 07:35:48;;;;;;;15.57;7.05;;;;;;;1.68;50.74;98252.44;4976256;28;20058;-79
2023/03/07 07:38:14;;;;;;;13.82;7.00;;;;;;;1.51;50.47;98249.16;4959778;28;20050;-76
2023/03/07 07:40:41;;;;;;;15.80;8.10;;;;;;;1.66;50.38;98254.34;4959058;28;20050;-76
2023/03/07 07:43:14;;;;;;;15.35;8.85;;;;;;;2.00;50.18;98257.53;4975835;28;20046;-75
2023/03/07 07:45:46;;;;;;;14.48;8.18;;;;;;;2.05;48.93;98255.44;4991879;28;20074;-78
2023/03/07 07:48:16;;;;;;;12.27;7.88;;;;;;;2.19;49.09;98252.78;4975494;28;20042;-77
2023/03/07 07:50:46;;;;;;;14.07;7.90;;;;;;;2.25;48.46;98262.06;4989900;28;20157;-79
2023/03/07 07:53:16;;;;;;;11.95;6.68;;;;;;;2.02;47.86;98260.06;4974324;28;20648;-78
2023/03/07 07:55:43;;;;;;;11.68;6.85;;;;;;;1.86;48.57;98260.16;4942029;28;20034;-78
2023/03/07 07:58:10;;;;;;;11.73;6.53;;;;;;;1.87;49.42;98265.31;4967375;28;20054;-76
2023/03/07 08:00:36;;;;;;;10.20;6.15;;;;;;;2.16;48.88;98278.50;4954310;28;20046;-78
2023/03/07 08:03:02;;;;;;;13.63;6.65;;;;;;;2.33;49.03;98277.41;4938629;28;20045;-77
2023/03/07 08:05:29;;;;;;;11.35;5.93;;;;;;;2.33;48.47;98275.66;4954636;28;20053;-76
2023/03/07 08:07:57;;;;;;;7.95;5.88;;;;;;;2.21;49.50;98276.41;4938659;28;20408;-77
2023/03/07 08:10:23;;;;;;;9.55;5.95;;;;;;;2.27;49.23;98275.19;4954339;28;20189;-78
2023/03/07 08:12:52;;;;;;;8.23;5.38;;;;;;;2.37;50.90;98284.19;4954512;28;20057;-77
2023/03/07 08:15:22;;;;;;;7.33;4.63;;;;;;;2.61;49.56;98273.88;4938981;28;20057;-76
2023/03/07 08:17:50;;;;;;;7.75;4.78;;;;;;;2.65;49.80;98281.47;4954316;28;20051;-78
2023/03/07 08:20:18;;;;;;;7.30;4.40;;;;;;;2.65;50.04;98286.75;4938213;28;20039;-77
2023/03/07 08:22:48;;;;;;;10.00;5.10;;;;;;;2.85;49.80;98287.25;4938271;28;20094;-76
2023/03/07 08:25:20;;;;;;;6.75;4.82;;;;;;;2.84;50.07;98280.28;4970506;28;20105;-77
2023/03/07 08:27:54;;;;;;;8.32;4.65;;;;;;;2.56;50.22;98292.63;4953693;28;20642;-77
2023/03/07 08:30:25;;;;;;;6.65;4.85;;;;;;;2.39;50.78;98295.50;4948912;28;20050;-77
2023/03/07 08:32:54;;;;;;;6.70;4.78;;;;;;;2.28;50.82;98297.97;4938051;28;20427;-76
2023/03/07 08:35:22;;;;;;;7.88;5.50;;;;;;;2.25;52.21;98290.25;4986455;28;20413;-77
2023/03/07 08:37:59;;;;;;;8.38;5.38;;;;;;;2.46;51.28;98302.06;4970302;28;20050;-77
2023/03/07 08:40:28;;;;;;;7.25;5.53;;;;;;;2.00;52.51;98291.78;4935071;29;20055;-79
2023/03/07 08:42:54;;;;;;;;;;;;;;;2.36;52.50;98287.75;4936716;29;20047;-76
2023/03/07 08:45:22;;;;;;;8.98;5.60;;;;;;;2.46;52.37;98291.53;4952374;29;19929;-79
2023/03/07 08:47:53;;;;;;;7.63;5.82;;;;;;;2.99;52.42;98289.84;4951718;29;20214;-77
2023/03/07 08:50:24;;;;;;;8.73;6.32;;;;;;;3.07;51.36;98287.53;4951775;29;20573;-78
2023/03/07 08:52:50;;;;;;;8.45;6.45;;;;;;;3.01;51.60;98292.34;4919459;29;20047;-78
2023/03/07 08:55:19;;;;;;;9.00;6.30;;;;;;;2.59;52.18;98316.16;4920840;29;20106;-74
2023/03/07 08:57:46;;;;;;;8.98;6.53;;;;;;;2.14;53.63;98301.44;4957861;28;20050;-76
2023/03/07 09:00:13;;;;;;;10.70;6.65;;;;;;;1.91;54.66;98313.41;4982947;28;20054;-74
2023/03/07 09:02:39;;;;;;;9.20;6.60;;;;;;;2.74;53.76;98318.75;4976040;28;20140;-72
2023/03/07 09:05:05;;;;;;;9.57;6.20;;;;;;;2.72;52.64;98333.88;4991587;28;20565;-78
2023/03/07 09:07:31;;;;;;;10.13;6.30;;;;;;;2.07;53.65;98313.31;4975574;28;20142;-75
2023/03/07 09:09:56;;;;;;;8.90;6.95;;;;;;;1.50;54.97;98322.03;4991004;28;20133;-76
2023/03/07 09:12:23;;;;;;;6.25;4.63;;;;;;;1.27;56.25;98304.97;4976282;28;20141;-74
2023/03/07 09:14:48;;;;;;;9.77;6.43;;;;;;;1.29;56.54;98323.31;4993238;28;20045;-74
2023/03/07 09:17:14;;;;;;;8.80;6.45;;;;;;;1.01;57.07;98314.38;4991992;28;20046;-75
2023/03/07 09:19:41;;;;;;;8.57;6.22;;;;;;;1.17;56.54;98307.31;4993200;28;20088;-74
2023/03/07 09:22:07;;;;;;;8.50;6.40;;;;;;;1.27;56.39;98318.13;4975565;28;20035;-73
2023/03/07 09:24:33;;;;;;;7.25;5.00;;;;;;;1.30;56.38;98319.75;4991387;28;20057;-76
2023/03/07 09:26:59;;;;;;;8.27;6.22;;;;;;;1.57;55.96;98312.81;4993157;28;20488;-75
2023/03/07 09:29:25;;;;;;;6.85;3.55;;;;;;;1.58;55.36;98325.06;4988163;28;20045;-76
2023/03/07 09:31:51;;;;;;;10.68;6.63;;;;;;;1.64;55.93;98313.31;4999212;28;20053;-77
2023/03/07 09:34:16;;;;;;;7.75;5.72;;;;;;;2.24;54.74;98317.56;4991819;28;20042;-78
2023/03/07 09:36:42;;;;;;;10.27;6.43;;;;;;;2.92;60.31;98322.84;4994118;28;20049;-77
2023/03/07 09:39:13;;;;;;;8.10;6.35;;;;;;;3.26;53.17;98328.56;4992330;28;20445;-76
2023/03/07 09:41:57;;;;;;;8.35;6.05;;;;;;;3.45;52.16;98329.00;4995472;28;20054;-77
2023/03/07 09:44:39;;;;;;;8.40;5.35;;;;;;;3.65;51.00;98347.03;4995924;28;20058;-77
2023/03/07 09:47:56;;;;;;;8.27;6.00;;;;;;;3.43;50.63;98330.94;4989351;28;20069;-78
2023/03/07 09:50:25;;;;;;;6.57;5.03;;;;;;;3.33;50.94;98343.06;4996110;28;20042;-76
2023/03/07 09:52:55;;;;;;;8.52;6.10;;;;;;;3.21;51.54;98347.34;4996781;28;20420;-77
2023/03/07 09:55:23;;;;;;;7.75;4.95;;;;;;;3.00;51.50;98346.09;5011170;28;20452;-75
2023/03/07 09:57:58;;;;;;;8.18;5.72;;;;;;;2.30;53.19;98359.38;4995127;28;20053;-77
2023/03/07 10:00:41;;;;;;;7.93;5.55;;;;;;;2.56;52.91;98355.09;4988367;28;20043;-77
2023/03/07 10:03:20;;;;;;;10.68;6.65;;;;;;;3.13;52.86;98352.28;4967019;28;20414;-77
2023/03/07 10:05:52;;;;;;;10.38;5.60;;;;;;;3.40;51.59;98368.13;4963029;28;20524;-79
2023/03/07 10:08:28;;;;;;;8.02;5.63;;;;;;;3.16;51.36;98381.16;4994813;28;20099;-77
2023/03/07 10:11:18;;;;;;;9.00;5.72;;;;;;;2.95;51.80;98356.13;5011657;28;20125;-76
2023/03/07 10:14:00;;;;;;;5.97;4.05;;;;;;;2.59;57.77;98366.28;4995212;28;20096;-85
2023/03/07 10:16:36;;;;;;;5.65;4.40;;;;;;;2.92;54.16;98367.72;4962943;28;20042;-76
2023/03/07 10:19:12;;;;;;;8.32;5.85;;;;;;;3.00;52.35;98381.28;4996015;28;20046;-78
2023/03/07 10:21:57;;;;;;;16.17;6.60;;;;;;;3.28;52.59;98374.22;4994929;28;20412;-75
2023/03/07 10:24:32;;;;;;;8.73;5.60;;;;;;;2.96;51.58;98385.06;5010672;28;20141;-76
2023/03/07 10:27:05;;;;;;;7.57;5.82;;;;;;;2.98;52.52;98391.09;4970376;28;20053;-78
2023/03/07 10:29:41;;;;;;;10.02;5.75;;;;;;;3.10;51.64;98398.22;4964829;28;20038;-77
2023/03/07 10:32:34;;;;;;;7.55;5.70;;;;;;;3.01;52.15;98398.81;4963471;28;20053;-77
2023/03/07 10:35:13;;;;;;;8.30;5.57;;;;;;;3.36;50.55;98396.53;4970561;28;20058;-78
2023/03/07 10:37:58;;;;;;;10.23;6.63;;;;;;;2.91;52.12;98405.63;4955659;28;20930;-78
2023/03/07 10:40:40;;;;;;;9.32;5.82;;;;;;;3.55;50.71;98414.66;4966950;28;20077;-77
2023/03/07 10:43:06;;;;;;;10.02;5.32;;;;;;;3.24;50.31;98414.97;4970459;28;20083;-76
2023/03/07 10:45:33;;;;;;;7.97;5.10;;;;;;;3.19;51.03;98414.41;4956703;28;20047;-76
2023/03/07 10:48:07;;;;;;;10.20;5.63;;;;;;;3.56;52.63;98421.63;4939268;29;20122;-76
2023/03/07 10:50:44;;;;;;;7.60;5.40;;;;;;;4.11;53.00;98412.63;4939247;29;20446;-77
2023/03/07 10:53:23;;;;;;;8.38;5.20;;;;;;;4.48;53.46;98425.13;4954955;29;20047;-77
2023/03/07 10:55:49;;;;;;;6.68;4.72;;;;;;;4.61;50.49;98421.50;4942627;28;20125;-76
2023/03/07 10:58:18;;;;;;;9.13;5.60;;;;;;;5.08;48.36;98430.50;4974658;28;20129;-77
2023/03/07 11:00:56;;;;;;;10.05;4.55;;;;;;;5.11;46.92;98430.28;4968499;28;20074;-75
2023/03/07 11:03:26;;;;;;;19.77;6.03;;;;;;;5.44;46.90;98426.13;4975680;28;20039;-75
2023/03/07 11:05:52;;;;;;;8.43;5.82;;;;;;;5.50;45.78;98441.59;4992246;28;20038;-78
2023/03/07 11:08:35;;;;;;;5.53;4.07;;;;;;;5.52;44.90;98444.94;4981223;28;20557;-76
2023/03/07 11:11:03;;;;;;;6.88;5.00;;;;;;;5.09;45.86;98448.09;4982212;28;20061;-75
2023/03/07 11:13:30;;;;;;;8.38;5.10;;;;;;;5.42;45.63;98438.66;4977910;28;20093;-75
2023/03/07 11:16:19;;;;;;;8.77;5.05;;;;;;;5.56;45.33;98454.38;4994996;28;20490;-76
2023/03/07 11:18:45;;;;;;;5.35;4.35;;;;;;;5.70;44.85;98434.78;4954827;29;20502;-76
2023/03/07 11:21:31;;;;;;;8.95;5.22;;;;;;;5.91;44.40;98448.25;4954792;29;20051;-75
2023/03/07 11:24:05;;;;;;;8.07;5.15;;;;;;;6.15;44.28;98447.41;4955698;29;20043;-74
2023/03/07 11:26:38;;;;;;;7.10;4.50;;;;;;;5.85;43.94;98456.66;4939384;29;20039;-76
2023/03/07 11:29:12;;;;;;;6.60;4.53;;;;;;;6.08;44.05;98466.41;4939404;29;20094;-75
2023/03/07 11:32:05;;;;;;;4.15;3.42;;;;;;;5.31;44.38;98484.47;4945919;28;20085;-76
2023/03/07 11:34:40;;;;;;;6.03;3.95;;;;;;;5.06;45.20;98472.13;4968493;28;20050;-76
2023/03/07 11:38:17;;;;;;;3.38;3.08;;;;;;;4.36;48.27;98482.34;4992925;28;20073;-75
2023/03/07 11:41:13;;;;;;;4.18;3.30;;;;;;;5.49;47.41;98490.25;4937692;29;20059;-90